sensor_id;sensor_type;location;lat;lon;timestamp;P1;durP1;ratioP1;P2;durP2;ratioP2
10232;SDS011;5161;48.174;11.756;2023-02-04T00:01:31;2.20;;;2.00;;
10232;SDS011;5161;48.174;11.756;2023-02-04T00:03:58;2.13;;;1.97;;
10232;SDS011;5161;48.174;11.756;2023-02-04T00:06:24;2.00;;;1.90;;
10232;SDS011;5161;48.174;11.756;2023-02-04T00:08:49;1.90;;;1.80;;
10232;SDS011;5161;48.174;11.756;2023-02-04T00:11:15;1.90;;;1.80;;
10232;SDS011;5161;48.174;11.756;2023-02-04T00:13:41;2.00;;;1.90;;
10232;SDS011;5161;48.174;11.756;2023-02-04T00:16:07;2.30;;;2.10;;
10232;SDS011;5161;48.174;11.756;2023-02-04T00:18:32;2.20;;;2.10;;
10232;SDS011;5161;48.174;11.756;2023-02-04T00:20:58;2.07;;;1.97;;
10232;SDS011;5161;48.174;11.756;2023-02-04T00:23:24;2.50;;;2.30;;
10232;SDS011;5161;48.174;11.756;2023-02-04T00:25:49;2.43;;;2.33;;
10232;SDS011;5161;48.174;11.756;2023-02-04T00:28:15;2.30;;;2.20;;
10232;SDS011;5161;48.174;11.756;2023-02-04T00:30:41;2.03;;;1.93;;
10232;SDS011;5161;48.174;11.756;2023-02-04T00:33:07;2.30;;;2.10;;
10232;SDS011;5161;48.174;11.756;2023-02-04T00:35:33;2.17;;;2.07;;
10232;SDS011;5161;48.174;11.756;2023-02-04T00:38:01;2.20;;;2.10;;
10232;SDS011;5161;48.174;11.756;2023-02-04T00:40:27;2.50;;;2.30;;
10232;SDS011;5161;48.174;11.756;2023-02-04T00:42:52;2.37;;;2.20;;
10232;SDS011;5161;48.174;11.756;2023-02-04T00:45:18;2.53;;;2.33;;
10232;SDS011;5161;48.174;11.756;2023-02-04T00:47:43;2.60;;;2.30;;
10232;SDS011;5161;48.174;11.756;2023-02-04T00:50:09;2.10;;;2.00;;
10232;SDS011;5161;48.174;11.756;2023-02-04T00:52:34;2.27;;;2.17;;
10232;SDS011;5161;48.174;11.756;2023-02-04T00:55:00;2.03;;;1.93;;
10232;SDS011;5161;48.174;11.756;2023-02-04T00:57:25;2.07;;;1.97;;
10232;SDS011;5161;48.174;11.756;2023-02-04T00:59:51;2.43;;;1.90;;
10232;SDS011;5161;48.174;11.756;2023-02-04T01:02:17;1.90;;;1.80;;
10232;SDS011;5161;48.174;11.756;2023-02-04T01:04:42;2.40;;;2.20;;
10232;SDS011;5161;48.174;11.756;2023-02-04T01:07:08;2.30;;;2.20;;
10232;SDS011;5161;48.174;11.756;2023-02-04T01:09:33;2.70;;;2.50;;
10232;SDS011;5161;48.174;11.756;2023-02-04T01:11:59;2.30;;;2.20;;
10232;SDS011;5161;48.174;11.756;2023-02-04T01:14:25;2.70;;;2.50;;
10232;SDS011;5161;48.174;11.756;2023-02-04T01:16:50;3.33;;;2.30;;
10232;SDS011;5161;48.174;11.756;2023-02-04T01:19:17;2.27;;;2.17;;
10232;SDS011;5161;48.174;11.756;2023-02-04T01:21:43;2.10;;;1.97;;
10232;SDS011;5161;48.174;11.756;2023-02-04T01:24:08;2.13;;;2.03;;
10232;SDS011;5161;48.174;11.756;2023-02-04T01:26:34;2.70;;;2.50;;
10232;SDS011;5161;48.174;11.756;2023-02-04T01:28:59;3.00;;;2.80;;
10232;SDS011;5161;48.174;11.756;2023-02-04T01:31:25;2.90;;;2.70;;
10232;SDS011;5161;48.174;11.756;2023-02-04T01:33:50;4.27;;;3.77;;
10232;SDS011;5161;48.174;11.756;2023-02-04T01:36:16;5.07;;;3.80;;
10232;SDS011;5161;48.174;11.756;2023-02-04T01:38:45;8.03;;;4.70;;
10232;SDS011;5161;48.174;11.756;2023-02-04T01:41:12;5.70;;;4.40;;
10232;SDS011;5161;48.174;11.756;2023-02-04T01:43:38;2.70;;;2.50;;
10232;SDS011;5161;48.174;11.756;2023-02-04T01:46:04;3.50;;;2.77;;
10232;SDS011;5161;48.174;11.756;2023-02-04T01:48:30;2.83;;;2.63;;
10232;SDS011;5161;48.174;11.756;2023-02-04T01:51:00;3.13;;;2.93;;
10232;SDS011;5161;48.174;11.756;2023-02-04T01:53:28;2.67;;;2.50;;
10232;SDS011;5161;48.174;11.756;2023-02-04T01:55:54;4.10;;;2.70;;
10232;SDS011;5161;48.174;11.756;2023-02-04T01:58:19;5.60;;;2.70;;
10232;SDS011;5161;48.174;11.756;2023-02-04T02:00:45;5.80;;;2.70;;
10232;SDS011;5161;48.174;11.756;2023-02-04T02:03:10;4.50;;;2.90;;
10232;SDS011;5161;48.174;11.756;2023-02-04T02:08:09;3.13;;;2.60;;
10232;SDS011;5161;48.174;11.756;2023-02-04T02:10:35;4.37;;;2.90;;
10232;SDS011;5161;48.174;11.756;2023-02-04T02:13:04;5.87;;;3.03;;
10232;SDS011;5161;48.174;11.756;2023-02-04T02:15:31;5.47;;;2.70;;
10232;SDS011;5161;48.174;11.756;2023-02-04T02:17:57;8.17;;;3.27;;
10232;SDS011;5161;48.174;11.756;2023-02-04T02:20:23;5.30;;;2.90;;
10232;SDS011;5161;48.174;11.756;2023-02-04T02:25:37;9.70;;;3.43;;
10232;SDS011;5161;48.174;11.756;2023-02-04T02:28:08;7.00;;;3.37;;
10232;SDS011;5161;48.174;11.756;2023-02-04T02:30:36;5.27;;;3.03;;
10232;SDS011;5161;48.174;11.756;2023-02-04T02:33:02;8.40;;;3.43;;
10232;SDS011;5161;48.174;11.756;2023-02-04T02:35:29;5.17;;;3.37;;
10232;SDS011;5161;48.174;11.756;2023-02-04T02:37:54;8.67;;;3.47;;
10232;SDS011;5161;48.174;11.756;2023-02-04T02:40:20;6.57;;;3.17;;
10232;SDS011;5161;48.174;11.756;2023-02-04T02:42:47;6.83;;;3.20;;
10232;SDS011;5161;48.174;11.756;2023-02-04T02:45:25;10.23;;;3.40;;
10232;SDS011;5161;48.174;11.756;2023-02-04T02:47:54;7.80;;;3.40;;
10232;SDS011;5161;48.174;11.756;2023-02-04T02:50:24;12.27;;;3.57;;
10232;SDS011;5161;48.174;11.756;2023-02-04T02:52:52;12.03;;;3.77;;
10232;SDS011;5161;48.174;11.756;2023-02-04T02:55:19;9.53;;;3.60;;
10232;SDS011;5161;48.174;11.756;2023-02-04T02:57:46;10.77;;;3.47;;
10232;SDS011;5161;48.174;11.756;2023-02-04T03:03:00;10.53;;;3.80;;
10232;SDS011;5161;48.174;11.756;2023-02-04T03:05:37;8.93;;;3.57;;
10232;SDS011;5161;48.174;11.756;2023-02-04T03:08:06;7.57;;;3.47;;
10232;SDS011;5161;48.174;11.756;2023-02-04T03:10:34;8.80;;;3.93;;
10232;SDS011;5161;48.174;11.756;2023-02-04T03:13:00;9.90;;;3.73;;
10232;SDS011;5161;48.174;11.756;2023-02-04T03:15:26;10.03;;;3.67;;
10232;SDS011;5161;48.174;11.756;2023-02-04T03:17:52;9.47;;;3.80;;
10232;SDS011;5161;48.174;11.756;2023-02-04T03:20:20;9.03;;;3.00;;
10232;SDS011;5161;48.174;11.756;2023-02-04T03:22:49;6.87;;;3.03;;
10232;SDS011;5161;48.174;11.756;2023-02-04T03:25:16;6.67;;;3.03;;
10232;SDS011;5161;48.174;11.756;2023-02-04T03:27:41;8.53;;;3.20;;
10232;SDS011;5161;48.174;11.756;2023-02-04T03:30:08;5.83;;;3.00;;
10232;SDS011;5161;48.174;11.756;2023-02-04T03:32:34;7.30;;;2.73;;
10232;SDS011;5161;48.174;11.756;2023-02-04T03:34:59;6.63;;;3.00;;
10232;SDS011;5161;48.174;11.756;2023-02-04T03:37:25;8.63;;;3.07;;
10232;SDS011;5161;48.174;11.756;2023-02-04T03:39:51;8.90;;;3.20;;
10232;SDS011;5161;48.174;11.756;2023-02-04T03:42:16;8.80;;;3.00;;
10232;SDS011;5161;48.174;11.756;2023-02-04T03:44:42;9.50;;;2.87;;
10232;SDS011;5161;48.174;11.756;2023-02-04T03:47:08;7.53;;;2.90;;
10232;SDS011;5161;48.174;11.756;2023-02-04T03:49:33;6.17;;;2.80;;
10232;SDS011;5161;48.174;11.756;2023-02-04T03:52:00;7.10;;;2.73;;
10232;SDS011;5161;48.174;11.756;2023-02-04T03:54:26;5.27;;;2.80;;
10232;SDS011;5161;48.174;11.756;2023-02-04T03:56:52;10.70;;;2.70;;
10232;SDS011;5161;48.174;11.756;2023-02-04T03:59:17;7.13;;;2.93;;
10232;SDS011;5161;48.174;11.756;2023-02-04T04:01:43;7.73;;;2.77;;
10232;SDS011;5161;48.174;11.756;2023-02-04T04:04:08;5.80;;;2.80;;
10232;SDS011;5161;48.174;11.756;2023-02-04T04:06:34;5.83;;;2.60;;
10232;SDS011;5161;48.174;11.756;2023-02-04T04:08:59;5.80;;;2.27;;
10232;SDS011;5161;48.174;11.756;2023-02-04T04:11:25;7.60;;;2.80;;
10232;SDS011;5161;48.174;11.756;2023-02-04T04:13:51;8.43;;;3.03;;
10232;SDS011;5161;48.174;11.756;2023-02-04T04:16:16;6.67;;;2.73;;
10232;SDS011;5161;48.174;11.756;2023-02-04T04:18:42;7.03;;;2.90;;
10232;SDS011;5161;48.174;11.756;2023-02-04T04:21:07;6.83;;;2.70;;
10232;SDS011;5161;48.174;11.756;2023-02-04T04:23:33;8.57;;;3.07;;
10232;SDS011;5161;48.174;11.756;2023-02-04T04:25:59;7.63;;;2.90;;
10232;SDS011;5161;48.174;11.756;2023-02-04T04:28:24;6.97;;;2.93;;
10232;SDS011;5161;48.174;11.756;2023-02-04T04:30:50;9.63;;;2.90;;
10232;SDS011;5161;48.174;11.756;2023-02-04T04:33:16;7.93;;;2.90;;
10232;SDS011;5161;48.174;11.756;2023-02-04T04:35:41;6.63;;;3.00;;
10232;SDS011;5161;48.174;11.756;2023-02-04T04:38:07;13.13;;;3.60;;
10232;SDS011;5161;48.174;11.756;2023-02-04T04:40:32;8.10;;;2.90;;
10232;SDS011;5161;48.174;11.756;2023-02-04T04:42:58;9.33;;;3.40;;
10232;SDS011;5161;48.174;11.756;2023-02-04T04:45:23;7.17;;;3.17;;
10232;SDS011;5161;48.174;11.756;2023-02-04T04:47:49;8.63;;;3.30;;
10232;SDS011;5161;48.174;11.756;2023-02-04T04:50:15;7.90;;;3.33;;
10232;SDS011;5161;48.174;11.756;2023-02-04T04:52:40;7.33;;;3.30;;
10232;SDS011;5161;48.174;11.756;2023-02-04T04:55:06;9.60;;;3.33;;
10232;SDS011;5161;48.174;11.756;2023-02-04T04:57:32;8.47;;;3.40;;
10232;SDS011;5161;48.174;11.756;2023-02-04T04:59:58;6.07;;;3.30;;
10232;SDS011;5161;48.174;11.756;2023-02-04T05:02:23;11.90;;;3.47;;
10232;SDS011;5161;48.174;11.756;2023-02-04T05:04:49;8.73;;;3.40;;
10232;SDS011;5161;48.174;11.756;2023-02-04T05:07:14;9.77;;;3.00;;
10232;SDS011;5161;48.174;11.756;2023-02-04T05:09:40;10.20;;;3.50;;
10232;SDS011;5161;48.174;11.756;2023-02-04T05:12:05;9.23;;;3.40;;
10232;SDS011;5161;48.174;11.756;2023-02-04T05:14:31;9.50;;;3.20;;
10232;SDS011;5161;48.174;11.756;2023-02-04T05:16:57;10.00;;;3.20;;
10232;SDS011;5161;48.174;11.756;2023-02-04T05:19:22;8.73;;;3.07;;
10232;SDS011;5161;48.174;11.756;2023-02-04T05:21:48;7.33;;;3.33;;
10232;SDS011;5161;48.174;11.756;2023-02-04T05:24:14;11.47;;;3.37;;
10232;SDS011;5161;48.174;11.756;2023-02-04T05:26:39;9.73;;;3.27;;
10232;SDS011;5161;48.174;11.756;2023-02-04T05:29:05;6.87;;;3.07;;
10232;SDS011;5161;48.174;11.756;2023-02-04T05:31:31;10.47;;;3.20;;
10232;SDS011;5161;48.174;11.756;2023-02-04T05:33:57;13.70;;;3.60;;
10232;SDS011;5161;48.174;11.756;2023-02-04T05:36:22;7.70;;;3.17;;
10232;SDS011;5161;48.174;11.756;2023-02-04T05:38:48;11.07;;;3.17;;
10232;SDS011;5161;48.174;11.756;2023-02-04T05:41:13;11.13;;;3.40;;
10232;SDS011;5161;48.174;11.756;2023-02-04T05:43:39;10.30;;;3.47;;
10232;SDS011;5161;48.174;11.756;2023-02-04T05:46:04;9.37;;;3.60;;
10232;SDS011;5161;48.174;11.756;2023-02-04T05:48:30;9.03;;;3.10;;
10232;SDS011;5161;48.174;11.756;2023-02-04T05:50:56;8.70;;;3.20;;
10232;SDS011;5161;48.174;11.756;2023-02-04T05:53:21;12.80;;;3.30;;
10232;SDS011;5161;48.174;11.756;2023-02-04T05:55:47;7.90;;;3.40;;
10232;SDS011;5161;48.174;11.756;2023-02-04T05:58:12;10.53;;;3.20;;
10232;SDS011;5161;48.174;11.756;2023-02-04T06:00:38;11.93;;;3.60;;
10232;SDS011;5161;48.174;11.756;2023-02-04T06:03:04;13.10;;;3.73;;
10232;SDS011;5161;48.174;11.756;2023-02-04T06:05:30;12.33;;;3.50;;
10232;SDS011;5161;48.174;11.756;2023-02-04T06:07:56;7.60;;;4.23;;
10232;SDS011;5161;48.174;11.756;2023-02-04T06:10:22;6.57;;;3.30;;
10232;SDS011;5161;48.174;11.756;2023-02-04T06:12:47;6.53;;;3.00;;
10232;SDS011;5161;48.174;11.756;2023-02-04T06:15:13;6.57;;;3.53;;
10232;SDS011;5161;48.174;11.756;2023-02-04T06:17:39;9.77;;;3.47;;
10232;SDS011;5161;48.174;11.756;2023-02-04T06:20:05;9.03;;;3.40;;
10232;SDS011;5161;48.174;11.756;2023-02-04T06:22:31;12.87;;;3.80;;
10232;SDS011;5161;48.174;11.756;2023-02-04T06:24:56;6.30;;;3.60;;
10232;SDS011;5161;48.174;11.756;2023-02-04T06:27:22;10.47;;;3.50;;
10232;SDS011;5161;48.174;11.756;2023-02-04T06:29:51;10.23;;;3.40;;
10232;SDS011;5161;48.174;11.756;2023-02-04T06:32:18;9.13;;;3.53;;
10232;SDS011;5161;48.174;11.756;2023-02-04T06:34:44;13.80;;;4.10;;
10232;SDS011;5161;48.174;11.756;2023-02-04T06:37:10;12.63;;;6.23;;
10232;SDS011;5161;48.174;11.756;2023-02-04T06:39:36;8.20;;;3.63;;
10232;SDS011;5161;48.174;11.756;2023-02-04T06:42:02;9.40;;;3.60;;
10232;SDS011;5161;48.174;11.756;2023-02-04T06:44:28;12.47;;;3.83;;
10232;SDS011;5161;48.174;11.756;2023-02-04T06:46:54;8.27;;;3.77;;
10232;SDS011;5161;48.174;11.756;2023-02-04T06:49:19;11.80;;;4.27;;
10232;SDS011;5161;48.174;11.756;2023-02-04T06:51:45;8.33;;;3.30;;
10232;SDS011;5161;48.174;11.756;2023-02-04T06:54:12;8.77;;;3.47;;
10232;SDS011;5161;48.174;11.756;2023-02-04T06:56:38;9.07;;;3.67;;
10232;SDS011;5161;48.174;11.756;2023-02-04T06:59:03;7.50;;;3.40;;
10232;SDS011;5161;48.174;11.756;2023-02-04T07:01:29;8.67;;;3.40;;
10232;SDS011;5161;48.174;11.756;2023-02-04T07:03:54;9.43;;;4.00;;
10232;SDS011;5161;48.174;11.756;2023-02-04T07:06:20;6.80;;;3.20;;
10232;SDS011;5161;48.174;11.756;2023-02-04T07:08:45;9.17;;;3.43;;
10232;SDS011;5161;48.174;11.756;2023-02-04T07:11:13;12.18;;;4.30;;
10232;SDS011;5161;48.174;11.756;2023-02-04T07:13:39;10.10;;;3.37;;
10232;SDS011;5161;48.174;11.756;2023-02-04T07:16:05;8.70;;;3.53;;
10232;SDS011;5161;48.174;11.756;2023-02-04T07:18:31;9.43;;;3.27;;
10232;SDS011;5161;48.174;11.756;2023-02-04T07:20:56;10.70;;;4.00;;
10232;SDS011;5161;48.174;11.756;2023-02-04T07:23:22;8.10;;;3.10;;
10232;SDS011;5161;48.174;11.756;2023-02-04T07:25:49;8.10;;;3.50;;
10232;SDS011;5161;48.174;11.756;2023-02-04T07:28:17;8.17;;;3.43;;
10232;SDS011;5161;48.174;11.756;2023-02-04T07:30:43;9.27;;;3.50;;
10232;SDS011;5161;48.174;11.756;2023-02-04T07:33:10;9.53;;;3.40;;
10232;SDS011;5161;48.174;11.756;2023-02-04T07:35:35;8.53;;;3.70;;
10232;SDS011;5161;48.174;11.756;2023-02-04T07:38:02;9.70;;;3.70;;
10232;SDS011;5161;48.174;11.756;2023-02-04T07:40:28;9.40;;;3.33;;
10232;SDS011;5161;48.174;11.756;2023-02-04T07:42:53;7.70;;;3.47;;
10232;SDS011;5161;48.174;11.756;2023-02-04T07:45:19;7.70;;;3.40;;
10232;SDS011;5161;48.174;11.756;2023-02-04T07:47:44;8.60;;;3.20;;
10232;SDS011;5161;48.174;11.756;2023-02-04T07:50:10;10.20;;;2.93;;
10232;SDS011;5161;48.174;11.756;2023-02-04T07:52:36;10.90;;;3.53;;
10232;SDS011;5161;48.174;11.756;2023-02-04T07:55:01;9.13;;;4.23;;
10232;SDS011;5161;48.174;11.756;2023-02-04T07:57:27;10.57;;;5.27;;
10232;SDS011;5161;48.174;11.756;2023-02-04T07:59:54;9.63;;;3.70;;
10232;SDS011;5161;48.174;11.756;2023-02-04T08:02:19;9.50;;;3.50;;
10232;SDS011;5161;48.174;11.756;2023-02-04T08:04:45;7.87;;;3.20;;
10232;SDS011;5161;48.174;11.756;2023-02-04T08:07:11;7.80;;;3.57;;
10232;SDS011;5161;48.174;11.756;2023-02-04T08:09:36;7.47;;;3.23;;
10232;SDS011;5161;48.174;11.756;2023-02-04T08:12:02;10.53;;;3.43;;
10232;SDS011;5161;48.174;11.756;2023-02-04T08:14:27;7.47;;;3.30;;
10232;SDS011;5161;48.174;11.756;2023-02-04T08:16:53;6.73;;;3.40;;
10232;SDS011;5161;48.174;11.756;2023-02-04T08:19:19;9.27;;;3.40;;
10232;SDS011;5161;48.174;11.756;2023-02-04T08:21:45;8.50;;;3.80;;
10232;SDS011;5161;48.174;11.756;2023-02-04T08:24:12;8.53;;;3.63;;
10232;SDS011;5161;48.174;11.756;2023-02-04T08:26:39;8.17;;;3.33;;
10232;SDS011;5161;48.174;11.756;2023-02-04T08:29:05;7.97;;;3.07;;
10232;SDS011;5161;48.174;11.756;2023-02-04T08:31:32;5.37;;;2.60;;
10232;SDS011;5161;48.174;11.756;2023-02-04T08:33:57;7.07;;;2.80;;
10232;SDS011;5161;48.174;11.756;2023-02-04T08:36:23;8.07;;;2.90;;
10232;SDS011;5161;48.174;11.756;2023-02-04T08:38:49;7.70;;;3.07;;
10232;SDS011;5161;48.174;11.756;2023-02-04T08:41:14;5.97;;;2.50;;
10232;SDS011;5161;48.174;11.756;2023-02-04T08:43:40;7.03;;;3.00;;
10232;SDS011;5161;48.174;11.756;2023-02-04T08:46:05;6.60;;;3.30;;
10232;SDS011;5161;48.174;11.756;2023-02-04T08:48:31;10.07;;;3.37;;
10232;SDS011;5161;48.174;11.756;2023-02-04T08:50:57;8.07;;;3.37;;
10232;SDS011;5161;48.174;11.756;2023-02-04T08:53:22;7.63;;;3.13;;
10232;SDS011;5161;48.174;11.756;2023-02-04T08:55:48;12.57;;;3.40;;
10232;SDS011;5161;48.174;11.756;2023-02-04T08:58:14;11.77;;;4.10;;
10232;SDS011;5161;48.174;11.756;2023-02-04T09:00:39;9.10;;;4.37;;
10232;SDS011;5161;48.174;11.756;2023-02-04T09:03:05;11.63;;;4.83;;
10232;SDS011;5161;48.174;11.756;2023-02-04T09:05:31;10.53;;;5.00;;
10232;SDS011;5161;48.174;11.756;2023-02-04T09:07:57;10.23;;;4.10;;
10232;SDS011;5161;48.174;11.756;2023-02-04T09:10:22;10.53;;;3.90;;
10232;SDS011;5161;48.174;11.756;2023-02-04T09:12:48;12.00;;;3.80;;
10232;SDS011;5161;48.174;11.756;2023-02-04T09:15:14;8.00;;;3.20;;
10232;SDS011;5161;48.174;11.756;2023-02-04T09:17:39;11.83;;;3.97;;
10232;SDS011;5161;48.174;11.756;2023-02-04T09:20:08;9.57;;;3.40;;
10232;SDS011;5161;48.174;11.756;2023-02-04T09:22:35;11.97;;;3.80;;
10232;SDS011;5161;48.174;11.756;2023-02-04T09:25:01;9.43;;;3.10;;
10232;SDS011;5161;48.174;11.756;2023-02-04T09:27:28;9.33;;;3.10;;
10232;SDS011;5161;48.174;11.756;2023-02-04T09:29:53;9.67;;;3.67;;
10232;SDS011;5161;48.174;11.756;2023-02-04T09:32:19;9.63;;;5.07;;
10232;SDS011;5161;48.174;11.756;2023-02-04T09:34:44;8.00;;;3.90;;
10232;SDS011;5161;48.174;11.756;2023-02-04T09:37:10;6.53;;;3.20;;
10232;SDS011;5161;48.174;11.756;2023-02-04T09:39:36;10.00;;;3.30;;
10232;SDS011;5161;48.174;11.756;2023-02-04T09:42:01;12.70;;;7.40;;
10232;SDS011;5161;48.174;11.756;2023-02-04T09:44:27;11.57;;;8.03;;
10232;SDS011;5161;48.174;11.756;2023-02-04T09:46:53;5.47;;;4.20;;
10232;SDS011;5161;48.174;11.756;2023-02-04T09:49:22;4.83;;;4.53;;
10232;SDS011;5161;48.174;11.756;2023-02-04T09:51:48;20.23;;;16.27;;
10232;SDS011;5161;48.174;11.756;2023-02-04T09:54:16;15.03;;;11.37;;
10232;SDS011;5161;48.174;11.756;2023-02-04T09:56:43;16.07;;;14.23;;
10232;SDS011;5161;48.174;11.756;2023-02-04T09:59:10;12.13;;;10.83;;
10232;SDS011;5161;48.174;11.756;2023-02-04T10:01:37;7.20;;;5.53;;
10232;SDS011;5161;48.174;11.756;2023-02-04T10:04:03;5.87;;;5.37;;
10232;SDS011;5161;48.174;11.756;2023-02-04T10:06:29;4.97;;;4.63;;
10232;SDS011;5161;48.174;11.756;2023-02-04T10:08:54;3.20;;;2.90;;
10232;SDS011;5161;48.174;11.756;2023-02-04T10:11:21;2.40;;;2.30;;
10232;SDS011;5161;48.174;11.756;2023-02-04T10:13:50;3.10;;;2.90;;
10232;SDS011;5161;48.174;11.756;2023-02-04T10:16:25;4.57;;;4.17;;
10232;SDS011;5161;48.174;11.756;2023-02-04T10:19:09;7.90;;;7.20;;
10232;SDS011;5161;48.174;11.756;2023-02-04T10:21:38;4.87;;;4.47;;
10232;SDS011;5161;48.174;11.756;2023-02-04T10:24:06;5.43;;;4.60;;
10232;SDS011;5161;48.174;11.756;2023-02-04T10:26:40;5.13;;;4.73;;
10232;SDS011;5161;48.174;11.756;2023-02-04T10:29:06;4.77;;;4.40;;
10232;SDS011;5161;48.174;11.756;2023-02-04T10:31:38;5.30;;;4.80;;
10232;SDS011;5161;48.174;11.756;2023-02-04T10:36:33;4.80;;;4.30;;
10232;SDS011;5161;48.174;11.756;2023-02-04T10:39:02;5.53;;;5.03;;
10232;SDS011;5161;48.174;11.756;2023-02-04T10:41:30;10.17;;;8.97;;
10232;SDS011;5161;48.174;11.756;2023-02-04T10:44:04;12.27;;;10.97;;
10232;SDS011;5161;48.174;11.756;2023-02-04T10:46:31;5.43;;;5.03;;
10232;SDS011;5161;48.174;11.756;2023-02-04T10:48:57;3.37;;;3.17;;
10232;SDS011;5161;48.174;11.756;2023-02-04T10:51:22;6.07;;;5.57;;
10232;SDS011;5161;48.174;11.756;2023-02-04T10:53:48;5.87;;;5.37;;
10232;SDS011;5161;48.174;11.756;2023-02-04T10:56:32;4.70;;;4.17;;
10232;SDS011;5161;48.174;11.756;2023-02-04T10:58:58;3.67;;;3.20;;
10232;SDS011;5161;48.174;11.756;2023-02-04T11:01:23;3.43;;;3.13;;
10232;SDS011;5161;48.174;11.756;2023-02-04T11:03:51;3.50;;;3.30;;
10232;SDS011;5161;48.174;11.756;2023-02-04T11:06:19;3.90;;;3.60;;
10232;SDS011;5161;48.174;11.756;2023-02-04T11:08:46;4.20;;;3.80;;
10232;SDS011;5161;48.174;11.756;2023-02-04T11:11:14;4.57;;;4.17;;
10232;SDS011;5161;48.174;11.756;2023-02-04T11:13:44;4.57;;;4.10;;
10232;SDS011;5161;48.174;11.756;2023-02-04T11:18:46;5.30;;;4.80;;
10232;SDS011;5161;48.174;11.756;2023-02-04T11:22:02;4.10;;;3.70;;
10232;SDS011;5161;48.174;11.756;2023-02-04T11:26:37;3.87;;;3.47;;
10232;SDS011;5161;48.174;11.756;2023-02-04T11:31:38;3.33;;;3.03;;
10232;SDS011;5161;48.174;11.756;2023-02-04T11:39:36;2.80;;;2.70;;
10232;SDS011;5161;48.174;11.756;2023-02-04T11:42:04;3.50;;;3.20;;
10232;SDS011;5161;48.174;11.756;2023-02-04T11:44:38;4.07;;;3.70;;
10232;SDS011;5161;48.174;11.756;2023-02-04T11:47:06;3.80;;;3.50;;
10232;SDS011;5161;48.174;11.756;2023-02-04T11:49:34;4.50;;;3.53;;
10232;SDS011;5161;48.174;11.756;2023-02-04T11:52:10;3.30;;;3.00;;
10232;SDS011;5161;48.174;11.756;2023-02-04T11:54:38;3.30;;;3.00;;
10232;SDS011;5161;48.174;11.756;2023-02-04T11:57:04;4.83;;;4.53;;
10232;SDS011;5161;48.174;11.756;2023-02-04T11:59:30;12.80;;;11.60;;
10232;SDS011;5161;48.174;11.756;2023-02-04T12:02:12;11.90;;;10.80;;
10232;SDS011;5161;48.174;11.756;2023-02-04T12:04:49;6.33;;;5.83;;
10232;SDS011;5161;48.174;11.756;2023-02-04T12:07:20;5.33;;;4.87;;
10232;SDS011;5161;48.174;11.756;2023-02-04T12:09:50;6.60;;;6.00;;
10232;SDS011;5161;48.174;11.756;2023-02-04T12:12:26;7.73;;;7.07;;
10232;SDS011;5161;48.174;11.756;2023-02-04T12:15:01;11.17;;;10.00;;
10232;SDS011;5161;48.174;11.756;2023-02-04T12:17:32;4.80;;;4.50;;
10232;SDS011;5161;48.174;11.756;2023-02-04T12:19:58;4.87;;;4.47;;
10232;SDS011;5161;48.174;11.756;2023-02-04T12:22:24;6.00;;;5.50;;
10232;SDS011;5161;48.174;11.756;2023-02-04T12:24:50;3.67;;;3.47;;
10232;SDS011;5161;48.174;11.756;2023-02-04T12:27:16;4.87;;;4.23;;
10232;SDS011;5161;48.174;11.756;2023-02-04T12:29:42;4.17;;;3.30;;
10232;SDS011;5161;48.174;11.756;2023-02-04T12:32:07;3.10;;;2.90;;
10232;SDS011;5161;48.174;11.756;2023-02-04T12:34:33;4.23;;;3.90;;
10232;SDS011;5161;48.174;11.756;2023-02-04T12:36:58;3.30;;;3.10;;
10232;SDS011;5161;48.174;11.756;2023-02-04T12:39:24;7.80;;;7.10;;
10232;SDS011;5161;48.174;11.756;2023-02-04T12:41:49;3.40;;;3.20;;
10232;SDS011;5161;48.174;11.756;2023-02-04T12:44:15;4.60;;;4.30;;
10232;SDS011;5161;48.174;11.756;2023-02-04T12:46:41;3.90;;;3.60;;
10232;SDS011;5161;48.174;11.756;2023-02-04T12:49:06;3.53;;;3.23;;
10232;SDS011;5161;48.174;11.756;2023-02-04T12:51:32;5.60;;;5.10;;
10232;SDS011;5161;48.174;11.756;2023-02-04T12:53:58;3.50;;;3.30;;
10232;SDS011;5161;48.174;11.756;2023-02-04T12:56:23;2.77;;;2.57;;
10232;SDS011;5161;48.174;11.756;2023-02-04T12:58:49;2.80;;;2.60;;
10232;SDS011;5161;48.174;11.756;2023-02-04T13:01:14;2.93;;;2.60;;
10232;SDS011;5161;48.174;11.756;2023-02-04T13:04:12;2.50;;;2.40;;
10232;SDS011;5161;48.174;11.756;2023-02-04T13:06:38;3.17;;;2.97;;
10232;SDS011;5161;48.174;11.756;2023-02-04T13:09:03;5.30;;;4.80;;
10232;SDS011;5161;48.174;11.756;2023-02-04T13:11:29;3.30;;;3.10;;
10232;SDS011;5161;48.174;11.756;2023-02-04T13:13:54;2.40;;;2.30;;
10232;SDS011;5161;48.174;11.756;2023-02-04T13:16:20;2.57;;;2.47;;
10232;SDS011;5161;48.174;11.756;2023-02-04T13:18:48;2.90;;;2.70;;
10232;SDS011;5161;48.174;11.756;2023-02-04T13:21:13;3.30;;;3.00;;
10232;SDS011;5161;48.174;11.756;2023-02-04T13:23:39;4.17;;;3.57;;
10232;SDS011;5161;48.174;11.756;2023-02-04T13:26:04;3.40;;;3.00;;
10232;SDS011;5161;48.174;11.756;2023-02-04T13:28:30;2.70;;;2.50;;
10232;SDS011;5161;48.174;11.756;2023-02-04T13:30:55;3.10;;;2.50;;
10232;SDS011;5161;48.174;11.756;2023-02-04T13:33:21;2.80;;;2.60;;
10232;SDS011;5161;48.174;11.756;2023-02-04T13:35:47;2.87;;;2.60;;
10232;SDS011;5161;48.174;11.756;2023-02-04T13:38:12;3.10;;;2.90;;
10232;SDS011;5161;48.174;11.756;2023-02-04T13:40:38;3.00;;;2.70;;
10232;SDS011;5161;48.174;11.756;2023-02-04T13:43:03;2.53;;;2.40;;
10232;SDS011;5161;48.174;11.756;2023-02-04T13:45:29;2.77;;;2.53;;
10232;SDS011;5161;48.174;11.756;2023-02-04T13:47:55;2.10;;;2.00;;
10232;SDS011;5161;48.174;11.756;2023-02-04T13:50:20;2.10;;;2.00;;
10232;SDS011;5161;48.174;11.756;2023-02-04T13:52:47;2.47;;;2.27;;
10232;SDS011;5161;48.174;11.756;2023-02-04T13:55:13;2.47;;;2.27;;
10232;SDS011;5161;48.174;11.756;2023-02-04T13:57:39;2.30;;;2.20;;
10232;SDS011;5161;48.174;11.756;2023-02-04T14:00:05;2.10;;;2.00;;
10232;SDS011;5161;48.174;11.756;2023-02-04T14:02:31;2.30;;;2.20;;
10232;SDS011;5161;48.174;11.756;2023-02-04T14:04:57;2.10;;;2.00;;
10232;SDS011;5161;48.174;11.756;2023-02-04T14:07:23;3.10;;;2.90;;
10232;SDS011;5161;48.174;11.756;2023-02-04T14:09:48;9.33;;;6.00;;
10232;SDS011;5161;48.174;11.756;2023-02-04T14:12:14;19.47;;;15.63;;
10232;SDS011;5161;48.174;11.756;2023-02-04T14:14:40;8.37;;;7.47;;
10232;SDS011;5161;48.174;11.756;2023-02-04T14:17:05;15.57;;;12.10;;
10232;SDS011;5161;48.174;11.756;2023-02-04T14:19:31;10.17;;;9.10;;
10232;SDS011;5161;48.174;11.756;2023-02-04T14:21:57;8.57;;;7.70;;
10232;SDS011;5161;48.174;11.756;2023-02-04T14:24:22;14.77;;;12.53;;
10232;SDS011;5161;48.174;11.756;2023-02-04T14:26:48;25.27;;;20.33;;
10232;SDS011;5161;48.174;11.756;2023-02-04T14:29:14;35.73;;;27.13;;
10232;SDS011;5161;48.174;11.756;2023-02-04T14:31:40;30.67;;;23.87;;
10232;SDS011;5161;48.174;11.756;2023-02-04T14:34:06;19.17;;;17.23;;
10232;SDS011;5161;48.174;11.756;2023-02-04T14:36:31;17.60;;;15.80;;
10232;SDS011;5161;48.174;11.756;2023-02-04T14:38:57;20.33;;;16.67;;
10232;SDS011;5161;48.174;11.756;2023-02-04T14:41:22;14.57;;;12.97;;
10232;SDS011;5161;48.174;11.756;2023-02-04T14:43:50;9.43;;;8.53;;
10232;SDS011;5161;48.174;11.756;2023-02-04T14:46:17;13.83;;;12.43;;
10232;SDS011;5161;48.174;11.756;2023-02-04T14:48:43;18.90;;;16.50;;
10232;SDS011;5161;48.174;11.756;2023-02-04T14:51:09;8.00;;;7.20;;
10232;SDS011;5161;48.174;11.756;2023-02-04T14:53:35;8.50;;;6.67;;
10232;SDS011;5161;48.174;11.756;2023-02-04T14:56:01;7.57;;;6.60;;
10232;SDS011;5161;48.174;11.756;2023-02-04T14:58:27;19.17;;;15.17;;
10232;SDS011;5161;48.174;11.756;2023-02-04T15:00:53;4.30;;;3.90;;
10232;SDS011;5161;48.174;11.756;2023-02-04T15:03:18;4.67;;;4.27;;